McBaine, Missouri
Current Conditions -  °F | °C
As of 7:54 PM on Sunday 25 Jan 2015 (Local Time) from KCOU Reporting Station
Overcast Overcast  
Wind Chill: 22°   Ceiling: 1200
Heat Index: 32°   Visibility: 10mi
Dew Point: 29°   Wind: 15mph
Humidity: 88%   Direction: 360°N
Pressure: 30.03"   Gusts: NA
Location:  38.895°N, 92.3958°W
Report Text: KCOU 260154Z 36013KT 10SM OVC012 00/M02 A3003 RMK AO2 SLP173 T00001017
Loading
Personal Weather Stations






























Interactive Weather Map New forecast layout! Learn more

10-Day Weather Forecast

Advertisements
Track Severe Weather on mobile